Time;durP1;ratioP1;P1;durP2;ratioP2;P2;SDS_P1;SDS_P2;PMS_P1;PMS_P2;Temp;Humidity;BMP_temperature;BMP_pressure;BME280_temperature;BME280_humidity;BME280_pressure;Samples;Min_cycle;Max_cycle;Signal;HPM_P1;HPM_P2
2022/05/05 00:01:41;;;;;;;4.43;3.00;;;4.90;73.20;;;;;;4843942;29;20183;-85
2022/05/05 00:04:07;;;;;;;6.47;3.20;;;4.90;73.20;;;;;;4827555;29;20562;-84
2022/05/05 00:06:33;;;;;;;6.30;4.00;;;4.90;73.00;;;;;;4844235;29;20178;-84
2022/05/05 00:08:59;;;;;;;6.87;3.20;;;4.90;72.90;;;;;;4827720;29;20211;-85
2022/05/05 00:14:24;;;;;;;4.07;2.60;;;4.70;73.50;;;;;;4844807;29;20177;-85
2022/05/05 00:17:19;;;;;;;3.47;2.70;;;4.60;73.90;;;;;;4844137;29;20244;-84
2022/05/05 00:19:50;;;;;;;6.53;2.80;;;4.60;73.70;;;;;;4832119;29;20273;-85
2022/05/05 00:22:16;;;;;;;4.60;3.10;;;4.60;73.60;;;;;;4827518;29;20268;-87
2022/05/05 00:24:41;;;;;;;5.13;3.23;;;4.50;73.80;;;;;;4827410;29;20227;-86
2022/05/05 00:27:07;;;;;;;9.63;3.50;;;4.30;74.40;;;;;;4843625;29;20692;-85
2022/05/05 00:29:33;;;;;;;8.23;2.90;;;4.30;74.40;;;;;;4827202;29;20205;-85
2022/05/05 00:31:58;;;;;;;7.00;3.63;;;4.30;74.40;;;;;;4827147;29;20211;-85
2022/05/05 00:34:24;;;;;;;5.53;3.13;;;4.30;74.30;;;;;;4827505;29;20196;-86
2022/05/05 00:36:50;;;;;;;8.30;3.00;;;4.30;74.30;;;;;;4843421;29;20182;-85
2022/05/05 00:39:16;;;;;;;4.13;3.10;;;4.30;74.10;;;;;;4826945;29;20203;-85
2022/05/05 00:41:44;;;;;;;3.13;2.83;;;4.30;74.00;;;;;;4827082;29;20184;-86
2022/05/05 00:44:10;;;;;;;4.70;3.13;;;4.30;73.80;;;;;;4827589;29;20189;-85
2022/05/05 00:46:36;;;;;;;3.60;3.30;;;4.30;73.70;;;;;;4843522;29;20184;-86
2022/05/05 00:49:02;;;;;;;7.23;3.40;;;4.20;73.60;;;;;;4827356;29;20688;-85
2022/05/05 00:51:28;;;;;;;4.70;3.47;;;4.30;73.60;;;;;;4827889;29;20208;-85
2022/05/05 00:53:55;;;;;;;4.80;3.30;;;4.20;73.40;;;;;;4827045;29;20207;-85
2022/05/05 00:56:22;;;;;;;4.20;3.10;;;4.10;73.40;;;;;;4843166;29;20229;-86
2022/05/05 00:58:48;;;;;;;7.10;3.07;;;4.10;73.30;;;;;;4826802;29;20220;-86
2022/05/05 01:01:19;;;;;;;5.87;3.30;;;4.00;73.40;;;;;;4843487;29;20217;-85
2022/05/05 01:03:45;;;;;;;5.97;3.63;;;4.00;73.40;;;;;;4843075;29;20179;-85
2022/05/05 01:06:12;;;;;;;5.10;3.57;;;4.00;73.50;;;;;;4827161;29;20190;-85
2022/05/05 01:08:37;;;;;;;6.97;3.70;;;4.00;73.60;;;;;;4826644;29;20312;-86
2022/05/05 01:11:03;;;;;;;7.80;3.70;;;4.00;73.60;;;;;;4825793;29;20676;-85
2022/05/05 01:13:32;;;;;;;6.27;4.43;;;4.00;74.10;;;;;;4842837;29;20215;-85
2022/05/05 01:15:59;;;;;;;6.40;4.03;;;3.90;74.90;;;;;;4843077;29;20185;-86
2022/05/05 01:18:25;;;;;;;6.27;4.43;;;4.00;75.60;;;;;;4842660;29;20208;-85
2022/05/05 01:20:52;;;;;;;10.60;4.43;;;4.00;75.60;;;;;;4826339;29;20206;-86
2022/05/05 01:23:19;;;;;;;5.13;3.77;;;4.00;75.40;;;;;;4826413;29;20188;-85
2022/05/05 01:28:31;;;;;;;5.47;4.00;;;3.80;76.30;;;;;;4842773;29;20278;-86
2022/05/05 01:30:57;;;;;;;4.10;3.23;;;3.70;76.60;;;;;;4842624;29;20190;-85
2022/05/05 01:33:25;;;;;;;6.90;4.40;;;3.70;76.60;;;;;;4842843;29;20635;-86
2022/05/05 01:35:53;;;;;;;5.87;4.50;;;3.70;76.60;;;;;;4826343;29;20627;-85
2022/05/05 01:38:21;;;;;;;6.00;4.03;;;3.60;76.60;;;;;;4826110;29;20208;-85
2022/05/05 01:40:47;;;;;;;5.17;3.77;;;3.60;76.70;;;;;;4826087;29;20577;-86
2022/05/05 01:43:14;;;;;;;6.43;3.73;;;3.60;76.50;;;;;;4826218;29;20188;-86
2022/05/05 01:45:40;;;;;;;5.50;3.80;;;3.70;76.30;;;;;;4826065;29;20278;-85
2022/05/05 01:48:06;;;;;;;5.80;4.27;;;3.70;76.20;;;;;;4842880;29;20190;-86
2022/05/05 01:50:32;;;;;;;6.30;3.97;;;3.60;75.90;;;;;;4826157;29;20645;-85
2022/05/05 01:52:59;;;;;;;7.20;4.10;;;3.60;75.90;;;;;;4843394;29;20219;-85
2022/05/05 01:55:25;;;;;;;5.70;4.20;;;3.60;75.90;;;;;;4842916;29;20199;-85
2022/05/05 01:57:51;;;;;;;9.87;4.13;;;3.60;75.80;;;;;;4842363;29;20286;-85
2022/05/05 02:00:18;;;;;;;7.20;4.63;;;3.60;75.70;;;;;;4826073;29;20226;-86
2022/05/05 02:02:44;;;;;;;7.10;4.53;;;3.50;75.60;;;;;;4842356;29;20545;-85
2022/05/05 02:05:11;;;;;;;7.33;4.50;;;3.50;75.80;;;;;;4842206;29;20643;-86
2022/05/05 02:07:40;;;;;;;5.37;4.23;;;3.50;76.60;;;;;;4825891;29;20192;-86
2022/05/05 02:10:07;;;;;;;7.30;4.57;;;3.50;77.20;;;;;;4842205;29;20204;-85
2022/05/05 02:12:35;;;;;;;8.47;4.70;;;3.50;77.70;;;;;;4825763;29;20183;-86
2022/05/05 02:15:02;;;;;;;4.50;4.10;;;3.30;78.20;;;;;;4825816;29;20190;-85
2022/05/05 02:17:28;;;;;;;4.93;4.53;;;3.40;77.90;;;;;;4841933;29;20565;-85
2022/05/05 02:19:53;;;;;;;6.40;4.30;;;3.40;77.60;;;;;;4825723;29;20211;-86
2022/05/05 02:22:19;;;;;;;5.90;4.20;;;3.40;77.30;;;;;;4826988;29;20184;-85
2022/05/05 02:24:44;;;;;;;5.07;3.90;;;3.40;77.00;;;;;;4845465;29;20239;-86
2022/05/05 02:27:10;;;;;;;9.47;4.10;;;3.40;76.80;;;;;;4845454;29;20271;-86
2022/05/05 02:29:36;;;;;;;8.67;4.87;;;3.40;76.70;;;;;;4828821;29;20298;-85
2022/05/05 02:32:01;;;;;;;9.20;4.70;;;3.40;76.50;;;;;;4829626;29;20543;-86
2022/05/05 02:34:27;;;;;;;6.37;4.73;;;3.40;76.40;;;;;;4845268;29;20190;-85
2022/05/05 02:39:36;;;;;;;9.60;4.60;;;3.50;76.40;;;;;;4845311;29;20255;-85
2022/05/05 02:42:02;;;;;;;6.73;4.87;;;3.40;76.40;;;;;;4828712;29;20175;-85
2022/05/05 02:44:28;;;;;;;14.97;5.50;;;3.40;76.40;;;;;;4845112;29;20176;-85
2022/05/05 02:46:53;;;;;;;11.37;5.80;;;3.40;76.40;;;;;;4828421;29;20187;-85
2022/05/05 02:49:19;;;;;;;5.70;5.03;;;3.40;76.40;;;;;;4828408;29;20228;-86
2022/05/05 02:51:45;;;;;;;8.30;6.00;;;3.30;76.50;;;;;;4845005;29;20198;-85
2022/05/05 02:56:55;;;;;;;13.13;8.00;;;3.30;76.90;;;;;;4844998;29;20178;-85
2022/05/05 02:59:20;;;;;;;14.53;8.77;;;3.30;78.70;;;;;;4828224;29;20203;-86
2022/05/05 03:01:46;;;;;;;8.60;7.03;;;3.30;78.60;;;;;;4844847;29;20179;-86
2022/05/05 03:04:12;;;;;;;7.37;6.37;;;3.30;78.30;;;;;;4828190;29;20191;-86
2022/05/05 03:06:37;;;;;;;10.03;6.97;;;3.40;78.20;;;;;;4844848;29;20183;-86
2022/05/05 03:09:03;;;;;;;14.47;7.60;;;3.40;78.10;;;;;;4828199;29;20303;-85
2022/05/05 03:11:28;;;;;;;11.40;6.10;;;3.30;78.00;;;;;;4828170;29;20188;-85
2022/05/05 03:13:54;;;;;;;11.50;5.63;;;3.30;78.20;;;;;;4828154;29;20200;-86
2022/05/05 03:16:20;;;;;;;8.17;7.37;;;3.30;78.40;;;;;;4828222;29;20195;-86
2022/05/05 03:18:45;;;;;;;11.90;6.90;;;3.40;78.50;;;;;;4844691;29;20302;-86
2022/05/05 03:21:11;;;;;;;6.63;6.03;;;3.30;78.60;;;;;;4828643;29;20186;-86
2022/05/05 03:23:36;;;;;;;7.87;6.87;;;3.30;78.70;;;;;;4828159;29;20179;-85
2022/05/05 03:26:02;;;;;;;7.13;6.43;;;3.30;78.80;;;;;;4845022;29;20186;-86
2022/05/05 03:28:28;;;;;;;5.80;5.30;;;3.30;79.00;;;;;;4828090;29;20188;-85
2022/05/05 03:30:53;;;;;;;7.37;6.50;;;3.30;79.00;;;;;;4844675;29;20262;-86
2022/05/05 03:33:19;;;;;;;6.97;6.30;;;3.30;79.10;;;;;;4844082;29;20586;-86
2022/05/05 03:35:44;;;;;;;8.40;6.80;;;3.30;79.30;;;;;;4827961;29;20252;-86
2022/05/05 03:38:10;;;;;;;9.50;7.13;;;3.20;79.40;;;;;;4827746;29;20205;-87
2022/05/05 03:40:35;;;;;;;7.87;7.03;;;3.20;79.60;;;;;;4844323;29;20650;-86
2022/05/05 03:43:01;;;;;;;7.57;6.87;;;3.20;79.70;;;;;;4844239;29;20266;-85
2022/05/05 03:45:27;;;;;;;9.00;7.40;;;3.20;79.90;;;;;;4844180;29;20183;-85
2022/05/05 03:47:52;;;;;;;7.33;6.57;;;3.20;80.00;;;;;;4844275;29;20262;-85
2022/05/05 03:50:18;;;;;;;9.73;7.30;;;3.20;80.10;;;;;;4844003;29;20628;-85
2022/05/05 03:52:43;;;;;;;10.93;8.27;;;3.30;80.20;;;;;;4827478;29;20191;-85
2022/05/05 03:55:09;;;;;;;11.90;8.73;;;3.30;80.40;;;;;;4843966;29;20195;-86
2022/05/05 03:57:34;;;;;;;16.13;7.97;;;3.30;80.40;;;;;;4827535;29;20208;-85
2022/05/05 04:00:00;;;;;;;8.50;7.60;;;3.40;80.30;;;;;;4843898;29;20238;-86
2022/05/05 04:02:26;;;;;;;8.80;6.63;;;3.50;80.30;;;;;;4827496;29;20191;-87
2022/05/05 04:04:51;;;;;;;7.60;6.37;;;3.70;80.20;;;;;;4827604;29;20271;-85
2022/05/05 04:07:17;;;;;;;12.63;7.03;;;3.80;80.10;;;;;;4827600;29;20183;-85
2022/05/05 04:09:42;;;;;;;6.73;6.13;;;4.00;80.00;;;;;;4827208;29;20203;-85
2022/05/05 04:12:08;;;;;;;8.53;6.53;;;4.20;79.80;;;;;;4827270;29;20287;-85
2022/05/05 04:14:34;;;;;;;7.33;5.73;;;4.30;79.50;;;;;;4843782;29;20187;-85
2022/05/05 04:17:00;;;;;;;5.60;5.10;;;4.40;79.40;;;;;;4843471;29;20239;-85
2022/05/05 04:19:27;;;;;;;5.70;5.20;;;4.50;79.30;;;;;;4843459;29;20255;-85
2022/05/05 04:21:52;;;;;;;6.23;5.37;;;4.50;79.10;;;;;;4827269;29;20275;-86
2022/05/05 04:24:18;;;;;;;6.17;5.67;;;4.50;78.80;;;;;;4843675;29;20207;-86
2022/05/05 04:26:45;;;;;;;8.70;6.00;;;4.60;78.80;;;;;;4843518;29;20190;-86
2022/05/05 04:29:11;;;;;;;11.40;6.77;;;4.60;79.20;;;;;;4827230;29;20577;-86
2022/05/05 04:31:37;;;;;;;11.00;5.97;;;4.50;80.50;;;;;;4826931;29;20190;-86
2022/05/05 04:34:04;;;;;;;6.80;6.20;;;4.50;80.80;;;;;;4826943;29;20213;-85
2022/05/05 04:36:34;;;;;;;6.40;5.73;;;4.60;81.00;;;;;;4843238;29;20206;-86
2022/05/05 04:39:03;;;;;;;8.80;6.23;;;4.60;81.40;;;;;;4826800;29;20219;-85
2022/05/05 04:41:29;;;;;;;7.90;6.60;;;4.70;81.60;;;;;;4826888;29;20220;-85
2022/05/05 04:43:54;;;;;;;9.20;7.00;;;4.70;81.70;;;;;;4843120;29;20215;-85
2022/05/05 04:46:20;;;;;;;10.73;7.53;;;4.70;81.50;;;;;;4826875;29;20626;-86
2022/05/05 04:48:46;;;;;;;9.40;7.30;;;4.70;81.50;;;;;;4826649;29;20200;-85
2022/05/05 04:51:11;;;;;;;12.47;7.67;;;4.60;81.40;;;;;;4826606;29;20199;-85
2022/05/05 04:53:37;;;;;;;16.47;8.07;;;4.60;81.50;;;;;;4826505;29;20249;-86
2022/05/05 04:56:03;;;;;;;14.43;7.73;;;4.60;81.50;;;;;;4826821;29;20176;-85
2022/05/05 04:58:28;;;;;;;14.37;9.00;;;4.60;81.20;;;;;;4842764;29;20204;-85
2022/05/05 05:00:54;;;;;;;13.07;8.70;;;4.70;81.30;;;;;;4842781;29;20186;-85
2022/05/05 05:03:40;;;;;;;18.90;12.23;;;4.70;81.20;;;;;;4826380;29;20209;-85
2022/05/05 05:06:08;;;;;;;25.87;13.30;;;4.60;81.80;;;;;;4842545;29;20280;-85
2022/05/05 05:08:34;;;;;;;28.77;15.53;;;4.60;82.60;;;;;;4842679;29;20230;-85
2022/05/05 05:11:00;;;;;;;23.37;13.77;;;4.60;83.40;;;;;;4842663;29;20194;-85
2022/05/05 05:13:25;;;;;;;19.17;12.73;;;4.70;84.30;;;;;;4843023;29;20549;-86
2022/05/05 05:15:51;;;;;;;20.13;12.33;;;4.80;85.00;;;;;;4842706;29;20651;-86
2022/05/05 05:18:17;;;;;;;16.60;11.63;;;5.10;84.30;;;;;;4842552;29;20203;-86
2022/05/05 05:20:42;;;;;;;13.97;10.73;;;5.20;83.60;;;;;;4826324;29;20237;-86
2022/05/05 05:23:08;;;;;;;14.87;10.70;;;5.30;83.30;;;;;;4826480;29;20241;-86
2022/05/05 05:25:34;;;;;;;18.23;11.70;;;5.50;83.60;;;;;;4842752;29;20595;-86
2022/05/05 05:28:00;;;;;;;19.20;13.07;;;5.50;84.00;;;;;;4826320;29;20185;-86
2022/05/05 05:30:26;;;;;;;22.57;13.40;;;5.70;84.70;;;;;;4826160;29;20214;-86
2022/05/05 05:32:51;;;;;;;18.20;14.50;;;5.80;85.40;;;;;;4842503;29;20189;-86
2022/05/05 05:35:17;;;;;;;22.70;16.07;;;5.90;85.90;;;;;;4842947;29;20188;-86
2022/05/05 05:37:44;;;;;;;24.13;16.77;;;6.00;86.70;;;;;;4843142;29;20577;-87
2022/05/05 05:40:10;;;;;;;19.93;16.20;;;6.20;87.30;;;;;;4842697;29;20197;-89
2022/05/05 05:42:35;;;;;;;24.93;17.60;;;6.10;87.30;;;;;;4830004;29;20205;-88
2022/05/05 05:45:01;;;;;;;24.77;18.93;;;6.30;87.70;;;;;;4829552;29;20194;-89
2022/05/05 05:47:26;;;;;;;22.10;18.60;;;6.40;88.00;;;;;;4845467;29;20190;-88
2022/05/05 05:49:52;;;;;;;26.10;18.67;;;6.50;88.00;;;;;;4826499;29;20214;-85
2022/05/05 05:52:17;;;;;;;24.17;18.47;;;6.50;88.10;;;;;;4843218;29;20184;-86
2022/05/05 05:54:43;;;;;;;26.33;18.07;;;6.70;88.20;;;;;;4842809;29;20707;-86
2022/05/05 05:57:09;;;;;;;24.10;16.10;;;6.80;88.50;;;;;;4843765;29;20221;-85
2022/05/05 05:59:34;;;;;;;25.63;18.80;;;6.80;88.30;;;;;;4829744;29;20221;-86
2022/05/05 06:04:44;;;;;;;25.27;16.90;;;6.80;88.00;;;;;;4846761;29;20181;-86
2022/05/05 06:07:09;;;;;;;22.87;18.90;;;6.90;87.90;;;;;;4846110;29;20187;-86
2022/05/05 06:09:35;;;;;;;22.63;16.83;;;6.90;87.60;;;;;;4829487;29;20197;-85
2022/05/05 06:12:00;;;;;;;23.50;17.10;;;7.00;87.40;;;;;;4846106;29;20261;-86
2022/05/05 06:14:26;;;;;;;23.17;17.13;;;7.00;87.20;;;;;;4829664;29;20270;-88
2022/05/05 06:16:51;;;;;;;21.23;16.63;;;7.00;86.80;;;;;;4829967;29;20179;-86
2022/05/05 06:19:17;;;;;;;23.03;16.17;;;7.10;86.70;;;;;;4845926;29;20650;-86
2022/05/05 06:21:42;;;;;;;18.93;13.87;;;7.20;86.20;;;;;;4829415;29;20227;-85
2022/05/05 06:24:09;;;;;;;16.67;12.60;;;7.20;85.50;;;;;;4846200;29;20244;-86
2022/05/05 06:26:35;;;;;;;18.37;12.63;;;7.30;85.40;;;;;;4846623;29;20195;-86
2022/05/05 06:29:01;;;;;;;23.90;13.23;;;7.40;85.00;;;;;;4846200;29;20583;-86
2022/05/05 06:31:26;;;;;;;19.20;11.63;;;7.50;84.70;;;;;;4829946;29;20282;-87
2022/05/05 06:33:52;;;;;;;19.80;11.43;;;7.50;83.90;;;;;;4846265;29;20176;-86
2022/05/05 06:36:18;;;;;;;15.13;9.90;;;7.60;83.60;;;;;;4846863;29;20211;-88
2022/05/05 06:38:43;;;;;;;13.83;8.43;;;7.60;82.00;;;;;;4830541;29;20284;-88
2022/05/05 06:41:09;;;;;;;11.40;8.83;;;7.60;80.50;;;;;;4830432;29;20666;-88
2022/05/05 06:43:35;;;;;;;14.63;9.27;;;7.80;81.20;;;;;;4830535;29;20179;-87
2022/05/05 06:46:01;;;;;;;18.37;8.57;;;8.10;81.40;;;;;;4830349;29;20278;-88
2022/05/05 06:48:27;;;;;;;10.53;8.60;;;8.10;80.50;;;;;;4830403;29;20190;-87
2022/05/05 06:50:52;;;;;;;15.07;8.23;;;8.20;79.50;;;;;;4829878;29;20188;-87
2022/05/05 06:53:18;;;;;;;11.87;7.53;;;8.30;79.50;;;;;;4829672;29;20179;-87
2022/05/05 06:55:44;;;;;;;12.07;6.07;;;8.30;78.00;;;;;;4829796;29;20268;-87
2022/05/05 06:58:09;;;;;;;11.30;6.00;;;8.30;78.00;;;;;;4830426;29;20204;-87
2022/05/05 07:03:19;;;;;;;14.50;6.53;;;8.60;77.30;;;;;;4847150;29;20171;-86
2022/05/05 07:05:45;;;;;;;7.20;6.13;;;8.80;76.90;;;;;;4832246;29;20187;-88
2022/05/05 07:08:11;;;;;;;11.37;5.30;;;8.70;76.40;;;;;;4830695;29;20654;-87
2022/05/05 07:10:55;;;;;;;13.47;5.87;;;8.80;75.80;;;;;;4830418;29;20263;-89
2022/05/05 07:13:22;;;;;;;8.97;5.43;;;8.90;76.40;;;;;;4828625;29;20558;-87
2022/05/05 07:15:48;;;;;;;11.67;6.03;;;9.10;75.80;;;;;;4828378;29;20191;-87
2022/05/05 07:18:13;;;;;;;8.10;4.63;;;9.20;75.50;;;;;;4845221;29;20199;-88
2022/05/05 07:20:39;;;;;;;16.90;4.83;;;9.20;74.00;;;;;;4844861;29;20253;-88
2022/05/05 07:23:07;;;;;;;14.70;4.47;;;9.20;75.20;;;;;;4844959;29;20190;-87
2022/05/05 07:25:32;;;;;;;11.33;4.00;;;9.50;73.80;;;;;;4847726;29;20172;-89
2022/05/05 07:27:58;;;;;;;7.33;3.83;;;9.50;73.80;;;;;;4830975;29;20239;-88
2022/05/05 07:30:24;;;;;;;8.63;3.93;;;9.60;73.40;;;;;;4830209;29;20203;-88
2022/05/05 07:32:49;;;;;;;8.57;3.57;;;9.70;73.10;;;;;;4848585;29;20235;-89
2022/05/05 07:35:15;;;;;;;7.00;4.07;;;9.70;72.70;;;;;;4831203;29;20559;-87
2022/05/05 07:37:41;;;;;;;12.93;3.80;;;9.60;73.10;;;;;;4829283;29;20299;-87
2022/05/05 07:40:08;;;;;;;11.80;3.87;;;9.80;72.90;;;;;;4845007;29;20273;-85
2022/05/05 07:42:34;;;;;;;10.70;3.97;;;9.80;72.60;;;;;;4844780;29;20181;-85
2022/05/05 07:44:59;;;;;;;6.57;3.77;;;9.60;72.10;;;;;;4828901;29;20185;-85
2022/05/05 07:47:25;;;;;;;7.93;3.87;;;9.80;72.70;;;;;;4829146;29;20187;-90
2022/05/05 07:49:52;;;;;;;11.03;4.33;;;10.00;73.60;;;;;;4828701;29;20207;-89
2022/05/05 07:52:17;;;;;;;9.87;3.00;;;10.10;72.40;;;;;;4845693;29;20180;-88
2022/05/05 07:54:44;;;;;;;9.33;2.83;;;10.30;72.00;;;;;;4829877;29;20584;-85
2022/05/05 07:57:12;;;;;;;10.00;3.23;;;10.40;71.00;;;;;;4828354;29;20211;-89
2022/05/05 07:59:39;;;;;;;9.20;3.17;;;10.40;70.50;;;;;;4844354;29;20655;-89
2022/05/05 08:02:09;;;;;;;7.53;3.23;;;10.50;70.60;;;;;;4827893;29;20266;-90
2022/05/05 08:04:34;;;;;;;9.67;3.73;;;10.60;69.60;;;;;;4828424;29;20214;-87
2022/05/05 08:07:00;;;;;;;11.07;2.80;;;10.70;69.30;;;;;;4827617;29;20218;-89
2022/05/05 08:09:26;;;;;;;23.53;3.93;;;10.80;68.40;;;;;;4827663;29;20580;-86
2022/05/05 08:11:51;;;;;;;6.27;2.67;;;10.80;69.40;;;;;;4828991;29;20187;-89
2022/05/05 08:14:17;;;;;;;8.77;3.10;;;10.80;69.10;;;;;;4844866;29;20262;-88
2022/05/05 08:16:43;;;;;;;12.07;3.23;;;10.90;68.80;;;;;;4829261;29;20188;-87
2022/05/05 08:19:08;;;;;;;5.20;3.20;;;10.90;67.90;;;;;;4828022;29;20223;-89
2022/05/05 08:21:34;;;;;;;11.43;3.60;;;11.10;68.00;;;;;;4827263;29;20222;-90
2022/05/05 08:29:27;;;;;;;14.60;3.40;;;11.40;68.30;;;;;;4844913;29;20232;-85
2022/05/05 08:31:53;;;;;;;8.07;3.40;;;11.70;67.70;;;;;;4844349;29;20176;-89
2022/05/05 08:34:19;;;;;;;8.80;3.47;;;12.00;67.30;;;;;;4827786;29;20186;-89
2022/05/05 08:36:45;;;;;;;10.80;3.30;;;12.10;67.30;;;;;;4828317;29;20191;-89
2022/05/05 08:39:10;;;;;;;9.60;3.53;;;12.00;64.80;;;;;;4827875;29;20220;-89
2022/05/05 08:41:39;;;;;;;9.67;3.77;;;12.20;65.00;;;;;;4845045;29;20207;-88
2022/05/05 08:44:04;;;;;;;12.00;3.23;;;12.30;65.50;;;;;;4828014;29;20566;-87
2022/05/05 08:46:33;;;;;;;9.20;3.00;;;12.40;65.40;;;;;;4827134;29;20171;-84
2022/05/05 08:49:03;;;;;;;7.07;2.80;;;12.40;64.30;;;;;;4843948;29;20252;-88
2022/05/05 08:51:42;;;;;;;6.47;2.80;;;12.20;64.90;;;;;;4841002;24;20251;-89
2022/05/05 08:54:12;;;;;;;11.50;3.57;;;12.10;64.50;;;;;;4808535;29;20172;-89
2022/05/05 08:56:39;;;;;;;10.63;3.13;;;12.40;65.00;;;;;;4808350;29;20199;-89
2022/05/05 08:59:07;;;;;;;12.87;3.37;;;12.30;64.60;;;;;;4808544;29;20651;-89
2022/05/05 09:01:38;;;;;;;10.40;3.43;;;12.50;63.50;;;;;;4808389;29;20581;-89
2022/05/05 09:04:05;;;;;;;8.60;2.83;;;12.90;64.80;;;;;;4808408;29;20237;-89
2022/05/05 09:06:49;;;;;;;13.37;3.23;;;12.90;63.40;;;;;;4808399;29;20233;-89
2022/05/05 09:09:35;;;;;;;12.20;3.00;;;13.30;64.00;;;;;;4808361;29;20195;-89
2022/05/05 09:12:14;;;;;;;9.33;3.27;;;13.00;60.20;;;;;;4808328;29;20208;-89
2022/05/05 09:14:44;;;;;;;5.40;2.90;;;13.20;62.10;;;;;;4808420;29;20259;-89
2022/05/05 09:17:18;;;;;;;8.40;3.40;;;13.30;60.70;;;;;;4808019;29;20603;-89
2022/05/05 09:19:46;;;;;;;9.03;3.40;;;13.20;59.60;;;;;;4808122;29;20172;-89
2022/05/05 09:22:13;;;;;;;10.67;3.47;;;13.50;59.80;;;;;;4808073;29;20200;-89
2022/05/05 09:24:43;;;;;;;8.80;3.30;;;13.80;60.60;;;;;;4808230;29;20172;-89
2022/05/05 09:27:33;;;;;;;7.13;3.70;;;13.70;60.20;;;;;;4808405;29;20662;-89
2022/05/05 09:30:12;;;;;;;9.97;3.90;;;14.00;60.80;;;;;;4824538;29;20205;-89
2022/05/05 09:32:43;;;;;;;10.43;3.20;;;14.20;59.80;;;;;;4810250;29;20204;-90
2022/05/05 09:35:12;;;;;;;12.27;4.90;;;14.50;59.20;;;;;;4811719;29;20191;-89
2022/05/05 09:37:54;;;;;;;8.37;3.50;;;14.80;57.60;;;;;;4811588;29;20199;-89
2022/05/05 09:40:21;;;;;;;8.93;4.00;;;14.80;58.60;;;;;;4811589;29;20187;-89
2022/05/05 09:42:49;;;;;;;8.13;3.87;;;15.00;56.70;;;;;;4827832;29;20180;-89
2022/05/05 09:45:30;;;;;;;7.93;3.55;;;14.80;55.30;;;;;;4811574;29;20180;-89
2022/05/05 09:47:59;;;;;;;7.23;3.20;;;15.00;56.20;;;;;;4812081;29;20176;-89
2022/05/05 09:50:26;;;;;;;8.77;3.90;;;15.20;55.30;;;;;;4811216;29;20184;-89
2022/05/05 09:58:26;;;;;;;8.63;4.32;;;15.30;54.00;;;;;;4827889;29;20227;-89
2022/05/05 10:01:04;;;;;;;9.00;3.20;;;15.20;54.30;;;;;;4811237;29;20200;-90
2022/05/05 10:04:05;;;;;;;5.63;2.85;;;15.50;53.80;;;;;;4812085;29;20204;-90
2022/05/05 10:06:44;;;;;;;5.93;2.80;;;15.60;52.70;;;;;;4826272;29;20199;-89
2022/05/05 10:09:14;;;;;;;5.50;2.28;;;15.80;51.40;;;;;;4827623;29;20176;-89
2022/05/05 10:11:41;;;;;;;7.80;3.03;;;15.80;50.80;;;;;;4827471;29;20204;-89
2022/05/05 10:14:08;;;;;;;8.88;3.20;;;15.80;49.90;;;;;;4811173;29;20184;-89
2022/05/05 10:16:37;;;;;;;8.93;2.67;;;15.40;49.60;;;;;;4810909;29;20195;-90
2022/05/05 10:19:04;;;;;;;5.88;2.58;;;15.50;52.20;;;;;;4811145;29;20295;-89
2022/05/05 10:21:41;;;;;;;5.18;2.58;;;15.80;50.70;;;;;;4810916;29;20204;-89
2022/05/05 10:24:19;;;;;;;8.98;2.95;;;15.70;50.30;;;;;;4812086;29;20541;-89
2022/05/05 10:26:53;;;;;;;6.13;2.83;;;15.50;51.80;;;;;;4811194;29;20654;-89
2022/05/05 10:29:31;;;;;;;8.40;2.83;;;15.70;52.60;;;;;;4810722;29;20188;-89
2022/05/05 10:32:05;;;;;;;6.07;2.80;;;15.90;51.30;;;;;;4810738;29;20211;-89
2022/05/05 10:34:32;;;;;;;8.43;2.63;;;15.90;52.10;;;;;;4810785;29;20180;-89
2022/05/05 10:37:00;;;;;;;6.70;2.60;;;15.60;52.10;;;;;;4810942;29;20233;-90
2022/05/05 10:39:42;;;;;;;6.25;2.28;;;15.80;51.60;;;;;;4810563;29;20249;-89
2022/05/05 10:42:14;;;;;;;4.30;2.00;;;16.00;48.10;;;;;;4810964;29;20203;-89
2022/05/05 10:45:06;;;;;;;8.60;1.98;;;15.90;49.50;;;;;;4810408;29;20176;-89
2022/05/05 10:47:50;;;;;;;9.98;2.17;;;16.10;49.00;;;;;;4811044;29;20275;-89
2022/05/05 10:50:31;;;;;;;6.78;2.22;;;16.40;49.00;;;;;;4810739;29;20184;-89
2022/05/05 10:52:58;;;;;;;8.15;1.98;;;17.00;47.30;;;;;;4828222;29;20253;-91
2022/05/05 10:55:26;;;;;;;5.85;2.17;;;17.20;46.50;;;;;;4810448;29;20188;-90
2022/05/05 10:57:54;;;;;;;6.47;2.00;;;17.20;45.70;;;;;;4811614;29;20557;-91
2022/05/05 11:00:22;;;;;;;4.68;2.15;;;17.30;45.40;;;;;;4810713;29;20227;-90
2022/05/05 11:03:03;;;;;;;6.95;2.03;;;16.60;45.20;;;;;;4813739;29;20209;-90
2022/05/05 11:05:30;;;;;;;8.68;2.30;;;16.60;48.60;;;;;;4827597;29;20259;-89
2022/05/05 11:08:15;;;;;;;7.90;2.50;;;16.60;47.60;;;;;;4810875;29;20275;-89
2022/05/05 11:10:48;;;;;;;11.15;2.60;;;16.80;49.70;;;;;;4810208;29;20208;-90
2022/05/05 11:13:33;;;;;;;13.32;2.90;;;17.40;49.00;;;;;;4828811;29;20708;-90
2022/05/05 11:25:35;;;;;;;4.85;2.10;;;17.70;46.60;;;;;;4832564;29;20215;-90
2022/05/05 11:28:01;;;;;;;7.55;2.55;;;17.80;46.90;;;;;;4827541;29;20175;-93
2022/05/05 11:30:26;;;;;;;4.57;1.95;;;17.20;46.70;;;;;;4823943;29;20192;-89
2022/05/05 11:32:52;;;;;;;5.47;2.38;;;17.00;44.60;;;;;;4813997;29;20209;-90
2022/05/05 11:35:21;;;;;;;10.23;3.00;;;17.30;48.30;;;;;;4834816;29;20172;-95
2022/05/05 11:37:47;;;;;;;6.53;3.08;;;17.70;52.70;;;;;;4834897;29;20224;-95
2022/05/05 11:40:13;;;;;;;6.18;2.95;;;17.20;49.90;;;;;;4815310;29;20328;-90
2022/05/05 11:45:30;;;;;;;12.82;3.72;;;18.30;47.40;;;;;;4829188;29;20239;-91
2022/05/05 11:47:56;;;;;;;9.27;3.08;;;18.60;49.20;;;;;;4809635;29;20184;-88
2022/05/05 11:50:22;;;;;;;4.68;2.63;;;18.90;47.80;;;;;;4809594;29;20555;-90
2022/05/05 11:52:47;;;;;;;7.20;3.22;;;18.40;46.30;;;;;;4827672;29;20258;-90
2022/05/05 11:55:17;;;;;;;6.88;3.55;;;18.40;49.40;;;;;;4811033;29;20203;-91
2022/05/05 11:57:45;;;;;;;8.82;4.00;;;18.70;48.90;;;;;;4809467;29;20216;-89
2022/05/05 12:02:57;;;;;;;10.20;4.00;;;18.70;49.50;;;;;;4826985;29;20166;-90
2022/05/05 12:05:24;;;;;;;7.00;3.28;;;18.40;47.10;;;;;;4809245;29;20180;-90
2022/05/05 12:07:51;;;;;;;5.72;3.00;;;18.40;47.70;;;;;;4809299;29;20270;-90
2022/05/05 12:10:18;;;;;;;9.43;3.33;;;18.10;50.10;;;;;;4811717;29;20187;-91
2022/05/05 12:12:46;;;;;;;10.55;3.58;;;18.10;48.90;;;;;;4818401;29;20242;-92
2022/05/05 12:15:12;;;;;;;5.65;3.22;;;18.30;50.00;;;;;;4815655;29;20192;-91
2022/05/05 12:17:45;;;;;;;9.40;3.42;;;18.20;48.60;;;;;;4810122;29;20208;-89
2022/05/05 12:20:13;;;;;;;8.98;3.95;;;18.30;49.90;;;;;;4809291;29;20188;-90
2022/05/05 12:22:43;;;;;;;10.73;3.70;;;18.80;48.20;;;;;;4808909;29;20585;-89
2022/05/05 12:25:14;;;;;;;8.18;2.90;;;18.80;48.80;;;;;;4825725;29;20216;-89
2022/05/05 12:27:46;;;;;;;7.10;3.22;;;18.60;48.90;;;;;;4809322;29;20180;-89
2022/05/05 12:30:28;;;;;;;8.18;3.35;;;18.30;50.90;;;;;;4809312;29;20184;-89
2022/05/05 12:32:54;;;;;;;7.80;3.35;;;18.50;49.50;;;;;;4809508;29;20677;-89
2022/05/05 12:35:32;;;;;;;7.60;3.22;;;18.90;49.10;;;;;;4809165;29;20184;-89
2022/05/05 12:38:02;;;;;;;4.57;3.00;;;18.70;50.50;;;;;;4809102;29;20253;-89
2022/05/05 12:40:28;;;;;;;7.40;3.00;;;18.90;48.30;;;;;;4808784;29;20180;-89
2022/05/05 12:43:06;;;;;;;6.43;3.10;;;18.90;48.50;;;;;;4808829;29;20677;-89
2022/05/05 12:45:33;;;;;;;9.27;3.80;;;19.00;46.90;;;;;;4825578;29;20176;-89
2022/05/05 12:48:06;;;;;;;6.18;3.10;;;18.40;49.10;;;;;;4808638;29;20196;-89
2022/05/05 12:50:41;;;;;;;4.03;3.03;;;18.70;47.90;;;;;;4809076;29;20172;-89
2022/05/05 13:01:30;;;;;;;4.53;3.10;;;19.20;46.70;;;;;;4825114;29;20644;-89
2022/05/05 13:04:05;;;;;;;5.63;3.00;;;18.80;46.50;;;;;;4808586;29;20180;-89
2022/05/05 13:06:31;;;;;;;5.53;3.03;;;18.90;47.60;;;;;;4808346;29;20223;-88
2022/05/05 13:08:57;;;;;;;6.10;3.80;;;19.30;47.40;;;;;;4808548;29;20188;-88
2022/05/05 13:11:23;;;;;;;9.07;4.88;;;19.20;46.50;;;;;;4824588;29;20208;-88
2022/05/05 13:13:50;;;;;;;9.10;4.80;;;19.50;47.90;;;;;;4824534;29;20180;-89
2022/05/05 13:16:16;;;;;;;7.72;4.15;;;19.10;48.70;;;;;;4808111;29;20773;-88
2022/05/05 13:18:42;;;;;;;9.55;4.97;;;19.50;48.80;;;;;;4808013;29;20200;-88
2022/05/05 13:21:08;;;;;;;10.13;5.60;;;19.50;47.30;;;;;;4808148;29;20199;-89
2022/05/05 13:23:34;;;;;;;7.93;5.35;;;19.30;48.50;;;;;;4824823;29;20256;-89
2022/05/05 13:26:00;;;;;;;8.93;4.60;;;19.30;47.90;;;;;;4808282;29;20188;-88
2022/05/05 13:28:26;;;;;;;6.97;4.85;;;18.50;49.80;;;;;;4808186;29;20236;-88
2022/05/05 13:30:52;;;;;;;6.97;4.00;;;18.80;49.90;;;;;;4807887;29;20207;-88
2022/05/05 13:33:17;;;;;;;7.80;4.30;;;18.90;48.40;;;;;;4808085;29;20190;-88
2022/05/05 13:35:44;;;;;;;7.63;4.90;;;19.30;49.80;;;;;;4808074;29;20659;-88
2022/05/05 13:38:10;;;;;;;8.77;4.80;;;19.60;49.40;;;;;;4807984;29;20192;-88
2022/05/05 13:40:35;;;;;;;8.63;4.63;;;19.50;46.20;;;;;;4807959;29;20183;-88
2022/05/05 13:43:01;;;;;;;9.02;4.90;;;19.10;49.60;;;;;;4807850;29;20324;-88